PRIVATE WETTERSTATION BILLIGHEIM-ALLFELD                       ZURCK
Wetterdaten: Freitag, 29.09.2017
Datum Zeit Temp. A. Temp. A. min Temp. A. max Feuchte A. Luftdruck Regen Wind Richtung Richtung Sonnenschein ET Solar Taupunkt Windchill Windben Empfang
29.09.2017 00:00 14,0 C 14,0 C 14,1 C 89 % 1023,0 hPa 0,0 l/m 0,0 km/h (0 Bft) N 0 0 min 0,000 mm 0 W/m 12,2 C 14,0 C 0,0 km/h (0 Bft) 100 %
29.09.2017 00:10 14,0 C 14,0 C 14,1 C 89 % 1023,0 hPa 0,0 l/m 0,0 km/h (0 Bft) N 0 0 min 0,000 mm 0 W/m 12,2 C 14,0 C 0,0 km/h (0 Bft) 100 %
29.09.2017 00:20 14,0 C 14,0 C 14,1 C 89 % 1023,0 hPa 0,0 l/m 0,0 km/h (0 Bft) N 0 0 min 0,000 mm 0 W/m 12,2 C 14,0 C 0,0 km/h (0 Bft) 100 %
29.09.2017 00:30 13,9 C 13,9 C 14,0 C 89 % 1023,0 hPa 0,0 l/m 0,0 km/h (0 Bft) N 0 0 min 0,000 mm 0 W/m 12,1 C 13,9 C 0,0 km/h (0 Bft) 100 %
29.09.2017 00:40 13,8 C 13,8 C 13,9 C 89 % 1022,9 hPa 0,0 l/m 0,0 km/h (0 Bft) N 0 0 min 0,000 mm 0 W/m 12,0 C 13,8 C 0,0 km/h (0 Bft) 99 %
29.09.2017 00:50 13,7 C 13,7 C 13,8 C 89 % 1022,9 hPa 0,0 l/m 0,0 km/h (0 Bft) N-NW 337 0 min 0,000 mm 0 W/m 11,9 C 13,7 C 1,6 km/h (1 Bft) 89 %
29.09.2017 01:00 13,6 C 13,6 C 13,7 C 89 % 1022,7 hPa 0,0 l/m 0,0 km/h (0 Bft) N 0 0 min 0,000 mm 0 W/m 11,8 C 13,6 C 0,0 km/h (0 Bft) 100 %
29.09.2017 01:10 13,5 C 13,5 C 13,6 C 89 % 1022,7 hPa 0,0 l/m 0,0 km/h (0 Bft) N 0 0 min 0,000 mm 0 W/m 11,7 C 13,5 C 0,0 km/h (0 Bft) 100 %
29.09.2017 01:20 13,4 C 13,4 C 13,5 C 89 % 1022,5 hPa 0,0 l/m 0,0 km/h (0 Bft) N 0 0 min 0,000 mm 0 W/m 11,6 C 13,4 C 0,0 km/h (0 Bft) 100 %
29.09.2017 01:30 13,3 C 13,3 C 13,4 C 89 % 1022,6 hPa 0,0 l/m 0,0 km/h (0 Bft) N 0 0 min 0,000 mm 0 W/m 11,5 C 13,3 C 0,0 km/h (0 Bft) 100 %
29.09.2017 01:40 13,2 C 13,2 C 13,3 C 89 % 1022,5 hPa 0,0 l/m 0,0 km/h (0 Bft) N 0 0 min 0,000 mm 0 W/m 11,4 C 13,2 C 0,0 km/h (0 Bft) 100 %
29.09.2017 01:50 13,2 C 13,2 C 13,2 C 89 % 1022,3 hPa 0,0 l/m 0,0 km/h (0 Bft) N 0 0 min 0,000 mm 0 W/m 11,4 C 13,2 C 0,0 km/h (0 Bft) 100 %
29.09.2017 02:00 13,1 C 13,1 C 13,2 C 89 % 1022,2 hPa 0,0 l/m 0,0 km/h (0 Bft) N 0 0 min 0,000 mm 0 W/m 11,3 C 13,1 C 0,0 km/h (0 Bft) 100 %
29.09.2017 02:10 13,0 C 13,0 C 13,1 C 89 % 1022,3 hPa 0,0 l/m 0,0 km/h (0 Bft) N 0 0 min 0,000 mm 0 W/m 11,2 C 13,0 C 0,0 km/h (0 Bft) 100 %
29.09.2017 02:20 12,9 C 12,9 C 13,0 C 89 % 1022,3 hPa 0,0 l/m 0,0 km/h (0 Bft) N 0 0 min 0,000 mm 0 W/m 11,1 C 12,9 C 0,0 km/h (0 Bft) 100 %
29.09.2017 02:30 12,9 C 12,9 C 12,9 C 89 % 1022,3 hPa 0,0 l/m 0,0 km/h (0 Bft) N 0 0 min 0,000 mm 0 W/m 11,1 C 12,9 C 0,0 km/h (0 Bft) 100 %
29.09.2017 02:40 12,8 C 12,8 C 12,9 C 89 % 1022,3 hPa 0,0 l/m 0,0 km/h (0 Bft) N 0 0 min 0,000 mm 0 W/m 11,0 C 12,8 C 0,0 km/h (0 Bft) 100 %
29.09.2017 02:50 12,8 C 12,8 C 12,9 C 89 % 1022,4 hPa 0,0 l/m 0,0 km/h (0 Bft) N 0 0 min 0,000 mm 0 W/m 11,0 C 12,8 C 0,0 km/h (0 Bft) 100 %
29.09.2017 03:00 12,9 C 12,8 C 12,9 C 89 % 1022,3 hPa 0,0 l/m 0,0 km/h (0 Bft) N 0 0 min 0,000 mm 0 W/m 11,1 C 12,9 C 0,0 km/h (0 Bft) 100 %
29.09.2017 03:10 12,9 C 12,9 C 12,9 C 89 % 1022,4 hPa 0,0 l/m 0,0 km/h (0 Bft) N 0 0 min 0,000 mm 0 W/m 11,1 C 12,9 C 0,0 km/h (0 Bft) 99 %
29.09.2017 03:20 13,1 C 12,9 C 13,1 C 89 % 1022,4 hPa 0,0 l/m 0,0 km/h (0 Bft) N 0 0 min 0,000 mm 0 W/m 11,3 C 13,1 C 0,0 km/h (0 Bft) 100 %
29.09.2017 03:30 13,2 C 13,1 C 13,2 C 89 % 1022,2 hPa 0,0 l/m 0,0 km/h (0 Bft) N 0 0 min 0,000 mm 0 W/m 11,4 C 13,2 C 0,0 km/h (0 Bft) 100 %
29.09.2017 03:40 13,4 C 13,2 C 13,4 C 89 % 1022,2 hPa 0,0 l/m 0,0 km/h (0 Bft) N 0 0 min 0,000 mm 0 W/m 11,6 C 13,4 C 0,0 km/h (0 Bft) 100 %
29.09.2017 03:50 13,4 C 13,4 C 13,4 C 89 % 1022,1 hPa 0,0 l/m 0,0 km/h (0 Bft) N 0 0 min 0,000 mm 0 W/m 11,6 C 13,4 C 0,0 km/h (0 Bft) 100 %
29.09.2017 04:00 13,4 C 13,4 C 13,4 C 89 % 1022,1 hPa 0,0 l/m 0,0 km/h (0 Bft) N 0 0 min 0,000 mm 0 W/m 11,6 C 13,4 C 0,0 km/h (0 Bft) 100 %
29.09.2017 04:10 13,4 C 13,4 C 13,4 C 89 % 1022,0 hPa 0,0 l/m 0,0 km/h (0 Bft) N 0 0 min 0,000 mm 0 W/m 11,6 C 13,4 C 0,0 km/h (0 Bft) 100 %
29.09.2017 04:20 13,3 C 13,3 C 13,4 C 89 % 1021,9 hPa 0,0 l/m 0,0 km/h (0 Bft) N 0 0 min 0,000 mm 0 W/m 11,5 C 13,3 C 0,0 km/h (0 Bft) 100 %
29.09.2017 04:30 13,2 C 13,2 C 13,3 C 89 % 1021,9 hPa 0,0 l/m 0,0 km/h (0 Bft) N 0 0 min 0,000 mm 0 W/m 11,4 C 13,2 C 0,0 km/h (0 Bft) 100 %
29.09.2017 04:40 13,2 C 13,2 C 13,2 C 89 % 1021,9 hPa 0,0 l/m 0,0 km/h (0 Bft) N 0 0 min 0,000 mm 0 W/m 11,4 C 13,2 C 0,0 km/h (0 Bft) 99 %
29.09.2017 04:50 13,1 C 13,1 C 13,2 C 89 % 1021,9 hPa 0,0 l/m 0,0 km/h (0 Bft) N 0 0 min 0,000 mm 0 W/m 11,3 C 13,1 C 0,0 km/h (0 Bft) 100 %
29.09.2017 05:00 13,1 C 13,1 C 13,1 C 89 % 1021,9 hPa 0,0 l/m 0,0 km/h (0 Bft) N 0 0 min 0,000 mm 0 W/m 11,3 C 13,1 C 0,0 km/h (0 Bft) 100 %
29.09.2017 05:10 13,1 C 13,1 C 13,1 C 89 % 1021,9 hPa 0,0 l/m 0,0 km/h (0 Bft) N 0 0 min 0,000 mm 0 W/m 11,3 C 13,1 C 0,0 km/h (0 Bft) 100 %
29.09.2017 05:20 13,1 C 13,1 C 13,1 C 89 % 1021,8 hPa 0,0 l/m 0,0 km/h (0 Bft) N 0 0 min 0,000 mm 0 W/m 11,3 C 13,1 C 0,0 km/h (0 Bft) 100 %
29.09.2017 05:30 13,0 C 13,0 C 13,1 C 89 % 1021,8 hPa 0,0 l/m 0,0 km/h (0 Bft) N 0 0 min 0,000 mm 0 W/m 11,2 C 13,0 C 0,0 km/h (0 Bft) 100 %
29.09.2017 05:40 13,0 C 13,0 C 13,0 C 89 % 1021,8 hPa 0,0 l/m 0,0 km/h (0 Bft) N 0 0 min 0,000 mm 0 W/m 11,2 C 13,0 C 0,0 km/h (0 Bft) 100 %
29.09.2017 05:50 13,2 C 13,0 C 13,2 C 90 % 1021,9 hPa 0,0 l/m 0,0 km/h (0 Bft) N 0 0 min 0,000 mm 0 W/m 11,6 C 13,2 C 0,0 km/h (0 Bft) 100 %
29.09.2017 06:00 13,3 C 13,2 C 13,3 C 90 % 1021,9 hPa 0,0 l/m 0,0 km/h (0 Bft) N 0 0 min 0,000 mm 0 W/m 11,7 C 13,3 C 0,0 km/h (0 Bft) 98 %
29.09.2017 06:10 13,7 C 13,3 C 13,7 C 90 % 1021,8 hPa 0,0 l/m 0,0 km/h (0 Bft) N 0 0 min 0,000 mm 0 W/m 12,1 C 13,7 C 0,0 km/h (0 Bft) 100 %
29.09.2017 06:20 13,6 C 13,6 C 13,7 C 90 % 1021,9 hPa 0,0 l/m 0,0 km/h (0 Bft) N 0 0 min 0,000 mm 0 W/m 12,0 C 13,6 C 0,0 km/h (0 Bft) 99 %
29.09.2017 06:30 13,8 C 13,6 C 13,8 C 90 % 1021,8 hPa 0,0 l/m 0,0 km/h (0 Bft) N 0 0 min 0,000 mm 0 W/m 12,2 C 13,8 C 0,0 km/h (0 Bft) 100 %
29.09.2017 06:40 13,6 C 13,5 C 13,8 C 89 % 1021,9 hPa 0,0 l/m 0,0 km/h (0 Bft) N 0 0 min 0,000 mm 0 W/m 11,8 C 13,6 C 0,0 km/h (0 Bft) 100 %
29.09.2017 06:50 13,3 C 13,3 C 13,6 C 89 % 1021,8 hPa 0,0 l/m 0,0 km/h (0 Bft) N 0 0 min 0,000 mm 0 W/m 11,5 C 13,3 C 0,0 km/h (0 Bft) 100 %
29.09.2017 07:00 13,3 C 13,3 C 13,3 C 90 % 1021,9 hPa 0,0 l/m 0,0 km/h (0 Bft) N 0 0 min 0,000 mm 0 W/m 11,7 C 13,3 C 0,0 km/h (0 Bft) 99 %
29.09.2017 07:10 13,3 C 13,3 C 13,3 C 90 % 1022,0 hPa 0,0 l/m 0,0 km/h (0 Bft) N 0 0 min 0,000 mm 0 W/m 11,7 C 13,3 C 0,0 km/h (0 Bft) 100 %
29.09.2017 07:20 13,3 C 13,3 C 13,3 C 90 % 1022,1 hPa 0,0 l/m 0,0 km/h (0 Bft) N 0 0 min 0,000 mm 0 W/m 11,7 C 13,3 C 0,0 km/h (0 Bft) 99 %
29.09.2017 07:30 13,3 C 13,2 C 13,3 C 90 % 1021,9 hPa 0,0 l/m 0,0 km/h (0 Bft) N 0 0 min 0,000 mm 5 W/m 11,7 C 13,3 C 0,0 km/h (0 Bft) 100 %
29.09.2017 07:40 13,3 C 13,3 C 13,3 C 90 % 1022,1 hPa 0,0 l/m 0,0 km/h (0 Bft) N 0 0 min 0,000 mm 9 W/m 11,7 C 13,3 C 0,0 km/h (0 Bft) 99 %
29.09.2017 07:50 13,3 C 13,3 C 13,3 C 90 % 1022,1 hPa 0,0 l/m 0,0 km/h (0 Bft) N 0 0 min 0,000 mm 12 W/m 11,7 C 13,3 C 0,0 km/h (0 Bft) 100 %
29.09.2017 08:00 13,4 C 13,3 C 13,4 C 90 % 1022,3 hPa 0,0 l/m 0,0 km/h (0 Bft) N 0 0 min 0,000 mm 14 W/m 11,8 C 13,4 C 0,0 km/h (0 Bft) 100 %
29.09.2017 08:10 13,4 C 13,3 C 13,4 C 90 % 1022,4 hPa 0,0 l/m 0,0 km/h (0 Bft) N 0 0 min 0,000 mm 18 W/m 11,8 C 13,4 C 0,0 km/h (0 Bft) 99 %
29.09.2017 08:20 13,5 C 13,4 C 13,5 C 90 % 1022,4 hPa 0,0 l/m 0,0 km/h (0 Bft) N 0 0 min 0,000 mm 23 W/m 11,9 C 13,5 C 0,0 km/h (0 Bft) 99 %
29.09.2017 08:30 13,6 C 13,5 C 13,6 C 90 % 1022,4 hPa 0,0 l/m 0,0 km/h (0 Bft) N 0 0 min 0,000 mm 42 W/m 12,0 C 13,6 C 0,0 km/h (0 Bft) 100 %
29.09.2017 08:40 13,6 C 13,6 C 13,6 C 90 % 1022,2 hPa 0,0 l/m 0,0 km/h (0 Bft) N 0 0 min 0,000 mm 49 W/m 12,0 C 13,6 C 0,0 km/h (0 Bft) 100 %
29.09.2017 08:50 13,9 C 13,6 C 13,9 C 90 % 1022,2 hPa 0,0 l/m 0,0 km/h (0 Bft) N 0 0 min 0,000 mm 47 W/m 12,3 C 13,9 C 0,0 km/h (0 Bft) 100 %
29.09.2017 09:00 13,9 C 13,9 C 13,9 C 90 % 1022,5 hPa 0,0 l/m 1,6 km/h (1 Bft) S-SW 202 0 min 0,025 mm 49 W/m 12,3 C 13,9 C 9,7 km/h (2 Bft) 99 %
29.09.2017 09:10 13,9 C 13,9 C 13,9 C 90 % 1022,6 hPa 0,0 l/m 3,2 km/h (1 Bft) S-SW 202 0 min 0,000 mm 53 W/m 12,3 C 13,9 C 6,4 km/h (2 Bft) 100 %
29.09.2017 09:20 14,0 C 13,9 C 14,0 C 89 % 1022,6 hPa 0,0 l/m 3,2 km/h (1 Bft) S-SW 202 0 min 0,000 mm 51 W/m 12,2 C 14,0 C 6,4 km/h (2 Bft) 90 %
29.09.2017 09:30 14,1 C 13,9 C 14,1 C 90 % 1022,7 hPa 0,0 l/m 1,6 km/h (1 Bft) S-SW 202 0 min 0,000 mm 81 W/m 12,5 C 14,1 C 4,8 km/h (1 Bft) 100 %
29.09.2017 09:50 14,3 C 13,9 C 14,3 C 90 % 1022,7 hPa 0,0 l/m 0,0 km/h (0 Bft) S-SW 192 0 min 0,000 mm 102 W/m 12,7 C 14,3 C 0,0 km/h (0 Bft) 100 %
29.09.2017 10:00 14,5 C 14,3 C 14,5 C 90 % 1022,6 hPa 0,0 l/m 0,0 km/h (0 Bft) S-SW 192 0 min 0,051 mm 109 W/m 12,9 C 14,5 C 0,0 km/h (0 Bft) 100 %
29.09.2017 10:10 14,8 C 14,5 C 14,8 C 90 % 1022,7 hPa 0,0 l/m 2,8 km/h (1 Bft) S-SW 207 0 min 0,000 mm 121 W/m 13,2 C 14,8 C 8,0 km/h (2 Bft) 100 %
29.09.2017 10:20 14,9 C 14,8 C 15,0 C 89 % 1022,6 hPa 0,0 l/m 3,2 km/h (1 Bft) S-SW 203 0 min 0,000 mm 135 W/m 13,1 C 14,9 C 6,4 km/h (2 Bft) 100 %
29.09.2017 10:30 15,1 C 14,9 C 15,1 C 89 % 1022,7 hPa 0,0 l/m 0,2 km/h (0 Bft) S-SW 203 10 min 0,000 mm 153 W/m 13,3 C 15,1 C 3,2 km/h (1 Bft) 100 %
29.09.2017 10:40 15,3 C 15,1 C 15,3 C 89 % 1022,6 hPa 0,0 l/m 0,0 km/h (0 Bft) S-SW 203 10 min 0,000 mm 192 W/m 13,5 C 15,3 C 0,0 km/h (0 Bft) 100 %
29.09.2017 10:50 15,8 C 15,3 C 15,8 C 89 % 1022,6 hPa 0,0 l/m 0,6 km/h (0 Bft) S-SW 203 10 min 0,000 mm 237 W/m 14,0 C 15,8 C 4,8 km/h (1 Bft) 100 %
29.09.2017 11:00 16,0 C 15,8 C 16,0 C 89 % 1022,4 hPa 0,0 l/m 0,0 km/h (0 Bft) S-SW 203 10 min 0,102 mm 251 W/m 14,2 C 16,0 C 1,6 km/h (1 Bft) 100 %
29.09.2017 11:10 16,3 C 16,0 C 16,3 C 89 % 1022,5 hPa 0,0 l/m 1,3 km/h (1 Bft) S 185 10 min 0,000 mm 193 W/m 14,5 C 16,3 C 4,8 km/h (1 Bft) 100 %
29.09.2017 11:20 16,7 C 16,3 C 16,7 C 89 % 1022,2 hPa 0,0 l/m 1,5 km/h (1 Bft) S 190 10 min 0,000 mm 188 W/m 14,9 C 16,7 C 6,4 km/h (2 Bft) 91 %
29.09.2017 11:30 16,9 C 16,7 C 16,9 C 88 % 1022,2 hPa 0,0 l/m 2,5 km/h (1 Bft) S-SW 208 10 min 0,000 mm 445 W/m 14,9 C 16,9 C 6,4 km/h (2 Bft) 100 %
29.09.2017 11:40 17,2 C 16,9 C 17,2 C 86 % 1022,2 hPa 0,0 l/m 0,1 km/h (0 Bft) S-SW 208 10 min 0,000 mm 260 W/m 14,8 C 17,2 C 3,2 km/h (1 Bft) 100 %
29.09.2017 11:50 17,6 C 17,2 C 17,6 C 87 % 1022,0 hPa 0,0 l/m 0,0 km/h (0 Bft) S-SW 208 10 min 0,000 mm 455 W/m 15,4 C 17,6 C 1,6 km/h (1 Bft) 100 %
29.09.2017 12:00 18,2 C 17,6 C 18,2 C 85 % 1021,9 hPa 0,0 l/m 0,5 km/h (0 Bft) S-SW 208 10 min 0,000 mm 559 W/m 15,6 C 18,2 C 4,8 km/h (1 Bft) 100 %
29.09.2017 12:10 18,8 C 18,2 C 18,8 C 83 % 1021,9 hPa 0,0 l/m 0,2 km/h (0 Bft) S-SW 209 10 min 0,152 mm 425 W/m 15,8 C 18,8 C 4,8 km/h (1 Bft) 100 %
29.09.2017 12:20 19,6 C 18,8 C 19,6 C 81 % 1021,9 hPa 0,0 l/m 0,4 km/h (0 Bft) S-SW 204 10 min 0,000 mm 587 W/m 16,2 C 19,6 C 8,0 km/h (2 Bft) 100 %
29.09.2017 12:30 20,1 C 19,6 C 20,1 C 79 % 1021,8 hPa 0,0 l/m 2,8 km/h (1 Bft) SW 219 10 min 0,000 mm 694 W/m 16,3 C 20,1 C 9,7 km/h (2 Bft) 100 %
29.09.2017 12:40 20,0 C 19,9 C 20,2 C 78 % 1021,6 hPa 0,0 l/m 2,1 km/h (1 Bft) S-SW 196 10 min 0,000 mm 686 W/m 16,0 C 20,0 C 8,0 km/h (2 Bft) 100 %
29.09.2017 12:50 20,2 C 19,9 C 20,2 C 79 % 1021,5 hPa 0,0 l/m 3,1 km/h (1 Bft) S-SO 163 10 min 0,000 mm 802 W/m 16,4 C 20,2 C 11,3 km/h (2 Bft) 100 %
29.09.2017 13:00 20,3 C 20,2 C 20,3 C 75 % 1021,4 hPa 0,0 l/m 2,2 km/h (1 Bft) S 187 10 min 0,000 mm 613 W/m 15,7 C 20,3 C 14,5 km/h (3 Bft) 98 %
29.09.2017 13:10 20,1 C 20,1 C 20,3 C 74 % 1021,4 hPa 0,0 l/m 1,7 km/h (1 Bft) SO 146 10 min 0,305 mm 631 W/m 15,3 C 20,1 C 9,7 km/h (2 Bft) 98 %
29.09.2017 13:20 20,2 C 20,0 C 20,2 C 74 % 1021,4 hPa 0,0 l/m 0,0 km/h (0 Bft) SW 219 10 min 0,000 mm 258 W/m 15,4 C 20,2 C 1,6 km/h (1 Bft) 100 %
29.09.2017 13:30 20,3 C 20,2 C 20,3 C 75 % 1021,2 hPa 0,0 l/m 1,1 km/h (1 Bft) S-SW 209 10 min 0,000 mm 243 W/m 15,7 C 20,3 C 8,0 km/h (2 Bft) 100 %
29.09.2017 13:40 20,0 C 20,0 C 20,3 C 74 % 1021,1 hPa 0,0 l/m 0,0 km/h (0 Bft) S-SO 148 10 min 0,000 mm 292 W/m 15,2 C 20,0 C 1,6 km/h (1 Bft) 100 %
29.09.2017 13:50 19,8 C 19,8 C 20,0 C 74 % 1021,0 hPa 0,0 l/m 0,5 km/h (0 Bft) S-SO 154 10 min 0,000 mm 271 W/m 15,0 C 19,8 C 6,4 km/h (2 Bft) 100 %
29.09.2017 14:00 19,8 C 19,8 C 19,8 C 75 % 1021,0 hPa 0,0 l/m 0,1 km/h (0 Bft) S 182 10 min 0,000 mm 380 W/m 15,2 C 19,8 C 3,2 km/h (1 Bft) 100 %
29.09.2017 14:10 20,0 C 19,8 C 20,0 C 72 % 1020,9 hPa 0,0 l/m 2,9 km/h (1 Bft) S-SO 157 10 min 0,229 mm 255 W/m 14,8 C 20,0 C 9,7 km/h (2 Bft) 100 %
29.09.2017 14:20 20,0 C 20,0 C 20,1 C 73 % 1020,9 hPa 0,0 l/m 0,5 km/h (0 Bft) SO 142 10 min 0,000 mm 236 W/m 15,0 C 20,0 C 6,4 km/h (2 Bft) 99 %
29.09.2017 14:30 20,0 C 20,0 C 20,1 C 72 % 1020,8 hPa 0,0 l/m 0,5 km/h (0 Bft) S 184 10 min 0,000 mm 220 W/m 14,8 C 20,0 C 8,0 km/h (2 Bft) 99 %
29.09.2017 14:40 20,0 C 20,0 C 20,1 C 73 % 1020,8 hPa 0,0 l/m 0,7 km/h (0 Bft) S-SW 201 10 min 0,000 mm 229 W/m 15,0 C 20,0 C 6,4 km/h (2 Bft) 100 %
29.09.2017 14:50 20,1 C 20,0 C 20,1 C 72 % 1020,7 hPa 0,0 l/m 0,0 km/h (0 Bft) S-SW 196 10 min 0,000 mm 264 W/m 14,9 C 20,1 C 1,6 km/h (1 Bft) 99 %
29.09.2017 15:00 20,1 C 20,1 C 20,1 C 71 % 1020,7 hPa 0,0 l/m 1,1 km/h (1 Bft) S-SW 193 10 min 0,177 mm 285 W/m 14,7 C 20,1 C 8,0 km/h (2 Bft) 99 %
29.09.2017 15:10 20,4 C 20,1 C 20,4 C 69 % 1020,5 hPa 0,0 l/m 1,2 km/h (1 Bft) S-SW 196 10 min 0,000 mm 257 W/m 14,5 C 20,4 C 6,4 km/h (2 Bft) 99 %
29.09.2017 15:20 20,7 C 20,4 C 20,7 C 65 % 1020,5 hPa 0,0 l/m 0,2 km/h (0 Bft) S-SW 209 10 min 0,000 mm 396 W/m 13,9 C 20,7 C 6,4 km/h (2 Bft) 100 %
29.09.2017 15:30 20,8 C 20,7 C 20,8 C 69 % 1020,5 hPa 0,0 l/m 0,5 km/h (0 Bft) S 191 10 min 0,000 mm 554 W/m 14,9 C 20,8 C 9,7 km/h (2 Bft) 100 %
29.09.2017 15:40 20,8 C 20,8 C 20,9 C 66 % 1020,5 hPa 0,0 l/m 0,1 km/h (0 Bft) S-SO 163 10 min 0,000 mm 350 W/m 14,2 C 20,8 C 4,8 km/h (1 Bft) 100 %
29.09.2017 15:50 20,7 C 20,7 C 20,8 C 70 % 1020,3 hPa 0,0 l/m 0,0 km/h (0 Bft) S-SO 161 10 min 0,000 mm 260 W/m 15,0 C 20,7 C 1,6 km/h (1 Bft) 100 %
29.09.2017 16:00 20,8 C 20,7 C 20,8 C 68 % 1020,0 hPa 0,0 l/m 0,0 km/h (0 Bft) SW 220 10 min 0,204 mm 158 W/m 14,7 C 20,8 C 1,6 km/h (1 Bft) 98 %
29.09.2017 16:10 21,0 C 20,8 C 21,1 C 67 % 1020,0 hPa 0,0 l/m 0,0 km/h (0 Bft) S-SW 213 10 min 0,000 mm 176 W/m 14,6 C 21,0 C 1,6 km/h (1 Bft) 100 %
29.09.2017 16:20 21,1 C 21,0 C 21,1 C 71 % 1019,9 hPa 0,0 l/m 0,0 km/h (0 Bft) SW 219 10 min 0,000 mm 165 W/m 15,6 C 21,1 C 1,6 km/h (1 Bft) 99 %
29.09.2017 16:30 21,3 C 21,1 C 21,3 C 70 % 1019,9 hPa 0,0 l/m 0,0 km/h (0 Bft) SW 224 0 min 0,000 mm 148 W/m 15,6 C 21,3 C 1,6 km/h (1 Bft) 99 %
29.09.2017 16:40 21,1 C 21,1 C 21,3 C 66 % 1019,9 hPa 0,0 l/m 0,0 km/h (0 Bft) S-SW 209 0 min 0,000 mm 123 W/m 14,5 C 21,1 C 1,6 km/h (1 Bft) 100 %
29.09.2017 16:50 20,9 C 20,9 C 21,1 C 67 % 1019,7 hPa 0,0 l/m 0,0 km/h (0 Bft) S-SW 206 0 min 0,000 mm 125 W/m 14,5 C 20,9 C 0,0 km/h (0 Bft) 100 %
29.09.2017 17:00 20,9 C 20,9 C 20,9 C 69 % 1019,8 hPa 0,0 l/m 0,0 km/h (0 Bft) S-SW 206 0 min 0,076 mm 97 W/m 15,0 C 20,9 C 0,0 km/h (0 Bft) 100 %
29.09.2017 17:10 20,8 C 20,8 C 20,9 C 70 % 1019,8 hPa 0,0 l/m 0,0 km/h (0 Bft) S-SW 206 0 min 0,000 mm 100 W/m 15,1 C 20,8 C 1,6 km/h (1 Bft) 100 %
29.09.2017 17:20 20,7 C 20,6 C 20,8 C 71 % 1019,8 hPa 0,0 l/m 0,0 km/h (0 Bft) S-SW 203 0 min 0,000 mm 95 W/m 15,2 C 20,7 C 0,0 km/h (0 Bft) 100 %
29.09.2017 17:30 20,6 C 20,6 C 20,7 C 69 % 1019,8 hPa 0,0 l/m 0,0 km/h (0 Bft) S-SW 193 0 min 0,000 mm 90 W/m 14,7 C 20,6 C 0,0 km/h (0 Bft) 100 %
29.09.2017 17:40 20,6 C 20,6 C 20,6 C 69 % 1019,8 hPa 0,0 l/m 0,0 km/h (0 Bft) S-SW 192 0 min 0,000 mm 72 W/m 14,7 C 20,6 C 1,6 km/h (1 Bft) 99 %
29.09.2017 17:50 20,6 C 20,6 C 20,6 C 72 % 1019,7 hPa 0,0 l/m 0,0 km/h (0 Bft) S 191 0 min 0,000 mm 70 W/m 15,4 C 20,6 C 1,6 km/h (1 Bft) 91 %
29.09.2017 18:00 20,4 C 20,4 C 20,6 C 73 % 1019,6 hPa 0,0 l/m 0,0 km/h (0 Bft) S 186 0 min 0,051 mm 70 W/m 15,4 C 20,4 C 1,6 km/h (1 Bft) 100 %
29.09.2017 18:10 20,2 C 20,2 C 20,4 C 73 % 1019,6 hPa 0,0 l/m 0,3 km/h (0 Bft) S 173 0 min 0,000 mm 56 W/m 15,2 C 20,2 C 4,8 km/h (1 Bft) 99 %
29.09.2017 18:20 20,1 C 20,1 C 20,2 C 73 % 1019,6 hPa 0,0 l/m 0,5 km/h (0 Bft) S-SO 167 0 min 0,000 mm 47 W/m 15,1 C 20,1 C 4,8 km/h (1 Bft) 100 %
29.09.2017 18:30 20,0 C 20,0 C 20,1 C 75 % 1019,6 hPa 0,0 l/m 0,0 km/h (0 Bft) S-SO 167 0 min 0,000 mm 30 W/m 15,4 C 20,0 C 1,6 km/h (1 Bft) 100 %
29.09.2017 18:40 19,8 C 19,8 C 20,0 C 75 % 1019,6 hPa 0,0 l/m 0,0 km/h (0 Bft) S-SO 167 0 min 0,000 mm 14 W/m 15,2 C 19,8 C 0,0 km/h (0 Bft) 100 %
29.09.2017 18:50 19,5 C 19,5 C 19,8 C 77 % 1019,6 hPa 0,0 l/m 0,0 km/h (0 Bft) S-SO 167 0 min 0,000 mm 7 W/m 15,4 C 19,5 C 0,0 km/h (0 Bft) 100 %
29.09.2017 19:00 19,2 C 19,2 C 19,5 C 78 % 1019,6 hPa 0,0 l/m 0,0 km/h (0 Bft) S-SO 167 0 min 0,025 mm 9 W/m 15,3 C 19,2 C 0,0 km/h (0 Bft) 99 %
29.09.2017 19:10 18,8 C 18,8 C 19,2 C 79 % 1019,7 hPa 0,0 l/m 0,0 km/h (0 Bft) S-SO 167 0 min 0,000 mm 0 W/m 15,1 C 18,8 C 0,0 km/h (0 Bft) 99 %
29.09.2017 19:20 18,5 C 18,5 C 18,8 C 79 % 1019,8 hPa 0,0 l/m 0,0 km/h (0 Bft) S-SO 167 0 min 0,000 mm 0 W/m 14,8 C 18,5 C 0,0 km/h (0 Bft) 100 %
29.09.2017 19:30 18,2 C 18,2 C 18,5 C 82 % 1019,8 hPa 0,0 l/m 0,0 km/h (0 Bft) S-SO 167 0 min 0,000 mm 0 W/m 15,1 C 18,2 C 0,0 km/h (0 Bft) 100 %
29.09.2017 19:40 17,9 C 17,9 C 18,2 C 81 % 1019,6 hPa 0,0 l/m 0,0 km/h (0 Bft) S-SO 167 0 min 0,000 mm 0 W/m 14,6 C 17,9 C 0,0 km/h (0 Bft) 100 %
29.09.2017 19:50 17,8 C 17,8 C 17,9 C 82 % 1019,6 hPa 0,0 l/m 0,0 km/h (0 Bft) S-SO 167 0 min 0,000 mm 0 W/m 14,7 C 17,8 C 0,0 km/h (0 Bft) 100 %
29.09.2017 20:00 17,6 C 17,6 C 17,8 C 81 % 1019,6 hPa 0,0 l/m 0,0 km/h (0 Bft) S-SO 167 0 min 0,000 mm 0 W/m 14,3 C 17,6 C 0,0 km/h (0 Bft) 100 %
29.09.2017 20:10 17,3 C 17,3 C 17,6 C 83 % 1019,5 hPa 0,0 l/m 0,0 km/h (0 Bft) S-SO 167 0 min 0,000 mm 0 W/m 14,4 C 17,3 C 0,0 km/h (0 Bft) 100 %
29.09.2017 20:20 17,2 C 17,2 C 17,3 C 83 % 1019,5 hPa 0,0 l/m 0,0 km/h (0 Bft) S-SO 167 0 min 0,000 mm 0 W/m 14,3 C 17,2 C 0,0 km/h (0 Bft) 100 %
29.09.2017 20:30 17,0 C 17,0 C 17,2 C 84 % 1019,5 hPa 0,0 l/m 0,0 km/h (0 Bft) S-SO 167 0 min 0,000 mm 0 W/m 14,3 C 17,0 C 0,0 km/h (0 Bft) 100 %
29.09.2017 20:40 16,8 C 16,8 C 17,0 C 85 % 1019,5 hPa 0,0 l/m 0,0 km/h (0 Bft) S-SO 167 0 min 0,000 mm 0 W/m 14,3 C 16,8 C 0,0 km/h (0 Bft) 100 %
29.09.2017 20:50 16,6 C 16,6 C 16,8 C 85 % 1019,5 hPa 0,0 l/m 0,0 km/h (0 Bft) S-SO 167 0 min 0,000 mm 0 W/m 14,1 C 16,6 C 0,0 km/h (0 Bft) 100 %
29.09.2017 21:00 16,4 C 16,4 C 16,6 C 86 % 1019,4 hPa 0,0 l/m 0,0 km/h (0 Bft) S-SO 167 0 min 0,025 mm 0 W/m 14,1 C 16,4 C 0,0 km/h (0 Bft) 100 %
29.09.2017 21:10 16,2 C 16,2 C 16,4 C 87 % 1019,5 hPa 0,0 l/m 0,0 km/h (0 Bft) N 0 0 min 0,000 mm 0 W/m 14,0 C 16,2 C 0,0 km/h (0 Bft) 100 %
29.09.2017 21:20 15,9 C 15,9 C 16,2 C 87 % 1019,4 hPa 0,0 l/m 0,0 km/h (0 Bft) N 0 0 min 0,000 mm 0 W/m 13,7 C 15,9 C 0,0 km/h (0 Bft) 100 %
29.09.2017 21:30 15,7 C 15,7 C 15,9 C 88 % 1019,3 hPa 0,0 l/m 0,0 km/h (0 Bft) N 0 0 min 0,000 mm 0 W/m 13,7 C 15,7 C 0,0 km/h (0 Bft) 100 %
29.09.2017 21:40 15,6 C 15,6 C 15,7 C 88 % 1019,4 hPa 0,0 l/m 0,0 km/h (0 Bft) S-SO 157 0 min 0,000 mm 0 W/m 13,6 C 15,6 C 1,6 km/h (1 Bft) 100 %
29.09.2017 21:50 15,4 C 15,4 C 15,6 C 88 % 1019,5 hPa 0,0 l/m 0,0 km/h (0 Bft) SW 225 0 min 0,000 mm 0 W/m 13,4 C 15,4 C 1,6 km/h (1 Bft) 100 %
29.09.2017 22:00 15,3 C 15,3 C 15,4 C 88 % 1019,5 hPa 0,0 l/m 0,0 km/h (0 Bft) N 0 0 min 0,000 mm 0 W/m 13,3 C 15,3 C 0,0 km/h (0 Bft) 100 %
29.09.2017 22:10 15,1 C 15,1 C 15,3 C 89 % 1019,5 hPa 0,0 l/m 1,6 km/h (1 Bft) SW 225 0 min 0,000 mm 0 W/m 13,3 C 15,1 C 4,8 km/h (1 Bft) 100 %
29.09.2017 22:20 15,1 C 15,1 C 15,1 C 89 % 1019,4 hPa 0,0 l/m 0,0 km/h (0 Bft) N 0 0 min 0,000 mm 0 W/m 13,3 C 15,1 C 0,0 km/h (0 Bft) 100 %
29.09.2017 22:30 14,9 C 14,9 C 15,1 C 89 % 1019,4 hPa 0,0 l/m 0,0 km/h (0 Bft) N 0 0 min 0,000 mm 0 W/m 13,1 C 14,9 C 0,0 km/h (0 Bft) 100 %
29.09.2017 22:40 14,8 C 14,8 C 14,9 C 89 % 1019,3 hPa 0,0 l/m 0,0 km/h (0 Bft) N 0 0 min 0,000 mm 0 W/m 13,0 C 14,8 C 0,0 km/h (0 Bft) 100 %
29.09.2017 22:50 14,6 C 14,6 C 14,8 C 89 % 1019,3 hPa 0,0 l/m 0,0 km/h (0 Bft) N 0 0 min 0,000 mm 0 W/m 12,8 C 14,6 C 0,0 km/h (0 Bft) 100 %
29.09.2017 23:00 14,5 C 14,5 C 14,6 C 89 % 1019,2 hPa 0,0 l/m 0,0 km/h (0 Bft) SW 225 0 min 0,000 mm 0 W/m 12,7 C 14,5 C 1,6 km/h (1 Bft) 100 %
29.09.2017 23:10 14,4 C 14,4 C 14,5 C 89 % 1019,3 hPa 0,0 l/m 0,0 km/h (0 Bft) N 0 0 min 0,000 mm 0 W/m 12,6 C 14,4 C 0,0 km/h (0 Bft) 100 %
29.09.2017 23:20 14,3 C 14,3 C 14,4 C 89 % 1019,3 hPa 0,0 l/m 0,0 km/h (0 Bft) N 0 0 min 0,000 mm 0 W/m 12,5 C 14,3 C 0,0 km/h (0 Bft) 100 %
29.09.2017 23:30 14,2 C 14,2 C 14,3 C 89 % 1019,2 hPa 0,0 l/m 0,0 km/h (0 Bft) N 0 0 min 0,000 mm 0 W/m 12,4 C 14,2 C 0,0 km/h (0 Bft) 100 %
29.09.2017 23:40 14,1 C 14,1 C 14,2 C 89 % 1019,2 hPa 0,0 l/m 0,0 km/h (0 Bft) W 270 0 min 0,000 mm 0 W/m 12,3 C 14,1 C 3,2 km/h (1 Bft) 100 %
29.09.2017 23:50 14,1 C 14,1 C 14,2 C 89 % 1019,1 hPa 0,0 l/m 0,0 km/h (0 Bft) N 0 0 min 0,000 mm 0 W/m 12,3 C 14,1 C 0,0 km/h (0 Bft) 100 %
_ Min-Zeit 02:40 02:40 02:30 15:20 23:50 - 00:00 - - - - - 02:40 02:40 00:00 00:50
Minimum _ 12,8 C 12,8 C 12,9 C 65 % 1019,1 hPa - 0,0 km/h (0 Bft) - - - - - 11,0 C 12,8 C 0,0 km/h (0 Bft) 89 %
_ Max-Zeit 16:30 16:30 16:30 05:50 00:00 00:00 09:10 - - 10:30 13:10 12:50 12:50 16:30 13:00 00:10
Maximum _ 21,3 C 21,1 C 21,3 C 90 % 1023,0 hPa 0,0 l/m 3,2 km/h
S-SW (1 Bft)
- - 10 min 0,305 mm 802 W/m 16,4 C 21,3 C 14,5 km/h
S-SW (3 Bft)
100 %
Durchschnitt _ 16,2 C 16,1 C 16,3 C 84 % 1021,2 hPa #0,0 l/m 0,3 km/h (0 Bft) S-SW - #6:00 h #1,422 mm 213 W/m 13,3 C 16,2 C 1,9 km/h (1 Bft) 99 %
PRIVATE WETTERSTATION BILLIGHEIM-ALLFELD - www.neckar-odenwald-wetter.de - Holger Sonntag